メインページ
METAR-TAF:

METAR-TAF

空港 :

西安, 中華人民共和国

西安咸陽国際空港

緯度: 34-26N, 経度: 108-45E, 海抜: 479m

現時点の気象観測

当レポートは23分前の17:00(UTC)に作成
北/北東の風 6kt
気温 7°C
湿度 45%
気圧 1027 hPa
視程10km以上
1,500メートル以下は雲なし、積乱雲なし

METAR: ZLXY 251700Z 02003MPS CAVOK 07/M04 Q1027 NOSIG

時間: 01:23 (17:23 UTC)

予報

当レポートは8時間15分前の09:08(UTC)に作成
予報は25日の 12時(UTC)から 26日の 12時(UTC)まで有効
西の風 8kt
視程: 5000m
煙霧

TAF: ZLXY 250908Z 2512/2612 27004MPS 5000 HZ NSC TX18/2608Z TN02/2523Z

4,000以上の空港の気象観測と天気予報(METAR報とTAF報)

利用可能な観測所は地図上に黄色い丸と赤い丸で示す。

丸の上にカーソルを重ねると観測所名を参照できる。

次にクリックすると気象観測と天気予報を参照できる。

マップの切り替え:黒色「×」印の緑ボタンをクリックして拡大、「-」印の緑ボタンをクリックして縮小、緑色の三角印をクリックして隣りの地図に切り替え


METAR-TAF: